createdAt,value
2018-03-06T00:00:05.040Z,992.63
2018-03-06T00:00:45.613Z,992.65
2018-03-06T00:01:26.166Z,992.61
2018-03-06T00:02:06.723Z,992.6
2018-03-06T00:02:47.311Z,992.6
2018-03-06T00:03:27.864Z,992.6
2018-03-06T00:04:08.562Z,992.65
2018-03-06T00:04:49.016Z,992.62
2018-03-06T00:05:29.568Z,992.61
2018-03-06T00:06:10.136Z,992.59
2018-03-06T00:06:50.696Z,992.58
2018-03-06T00:07:31.255Z,992.64
2018-03-06T00:08:12.317Z,992.61
2018-03-06T00:08:52.534Z,992.63
2018-03-06T00:09:33.132Z,992.59
2018-03-06T00:10:13.702Z,992.6
2018-03-06T00:10:54.299Z,992.6
2018-03-06T00:11:34.896Z,992.56
2018-03-06T00:12:15.443Z,992.54
2018-03-06T00:12:55.995Z,992.56
2018-03-06T00:13:36.572Z,992.61
2018-03-06T00:14:17.278Z,992.55
2018-03-06T00:14:57.843Z,992.53
2018-03-06T00:15:38.407Z,992.51
2018-03-06T00:16:18.952Z,992.54
2018-03-06T00:16:59.507Z,992.52
2018-03-06T00:17:40.085Z,992.51
2018-03-06T00:18:20.637Z,992.49
2018-03-06T00:19:01.180Z,992.45
2018-03-06T00:19:41.745Z,992.45
2018-03-06T00:20:22.349Z,992.51
2018-03-06T00:21:02.840Z,992.48
2018-03-06T00:21:43.401Z,992.5
2018-03-06T00:22:23.961Z,992.45
2018-03-06T00:23:04.527Z,992.5
2018-03-06T00:23:45.084Z,992.47
2018-03-06T00:24:25.653Z,992.46
2018-03-06T00:25:06.194Z,992.49
2018-03-06T00:25:46.728Z,992.48
2018-03-06T00:26:27.300Z,992.46
2018-03-06T00:27:07.881Z,992.44
2018-03-06T00:27:48.421Z,992.45
2018-03-06T00:28:28.970Z,992.39
2018-03-06T00:29:09.532Z,992.38
2018-03-06T00:29:50.185Z,992.41
2018-03-06T00:30:30.651Z,992.42
2018-03-06T00:31:11.222Z,992.37
2018-03-06T00:31:51.778Z,992.39
2018-03-06T00:32:32.331Z,992.42
2018-03-06T00:33:12.875Z,992.38
2018-03-06T00:33:53.437Z,992.37
2018-03-06T00:34:33.996Z,992.33
2018-03-06T00:35:14.558Z,992.35
2018-03-06T00:35:55.104Z,992.35
2018-03-06T00:36:35.663Z,992.32
2018-03-06T00:37:16.205Z,992.32
2018-03-06T00:37:56.766Z,992.32
2018-03-06T00:38:37.327Z,992.29
2018-03-06T00:39:17.889Z,992.3
2018-03-06T00:39:58.442Z,992.32
2018-03-06T00:40:38.998Z,992.24
2018-03-06T00:41:19.555Z,992.24
2018-03-06T00:42:00.117Z,992.22
2018-03-06T00:42:40.668Z,992.21
2018-03-06T00:43:21.219Z,992.21
2018-03-06T00:44:01.813Z,992.19
2018-03-06T00:44:42.359Z,992.21
2018-03-06T00:45:22.910Z,992.21
2018-03-06T00:46:03.477Z,992.17
2018-03-06T00:46:44.044Z,992.18
2018-03-06T00:47:24.629Z,992.19
2018-03-06T00:48:05.191Z,992.18
2018-03-06T00:48:45.756Z,992.17
2018-03-06T00:49:26.324Z,992.15
2018-03-06T00:50:06.874Z,992.15
2018-03-06T00:50:47.430Z,992.19
2018-03-06T00:51:27.984Z,992.11
2018-03-06T00:52:08.553Z,992.11
2018-03-06T00:52:49.126Z,992.11
2018-03-06T00:53:29.692Z,992.14
2018-03-06T00:54:10.241Z,992.1
2018-03-06T00:54:50.798Z,992.11
2018-03-06T00:55:31.364Z,992.08
2018-03-06T00:56:11.908Z,992.1
2018-03-06T00:56:52.462Z,992.14
2018-03-06T00:57:33.027Z,992.08
2018-03-06T00:58:13.564Z,992.07
2018-03-06T00:58:54.132Z,992.06
2018-03-06T00:59:34.665Z,992.05
2018-03-06T01:00:15.238Z,992.05
2018-03-06T01:00:55.768Z,992.06
2018-03-06T01:01:36.333Z,992.05
2018-03-06T01:02:16.871Z,992.04
2018-03-06T01:02:57.420Z,992
2018-03-06T01:03:37.973Z,992.01
2018-03-06T01:04:18.521Z,992.01
2018-03-06T01:04:59.079Z,992.04
2018-03-06T01:05:39.628Z,991.98
2018-03-06T01:06:20.180Z,991.98
2018-03-06T01:07:00.739Z,992
2018-03-06T01:07:41.316Z,991.95
2018-03-06T01:08:21.891Z,992
2018-03-06T01:09:02.426Z,991.91
2018-03-06T01:09:42.982Z,992
2018-03-06T01:10:23.534Z,991.97
2018-03-06T01:11:04.093Z,991.97
2018-03-06T01:11:44.634Z,991.96
2018-03-06T01:12:25.198Z,991.97
2018-03-06T01:13:05.756Z,991.97
2018-03-06T01:13:46.311Z,991.94
2018-03-06T01:14:26.902Z,991.93
2018-03-06T01:15:07.423Z,991.93
2018-03-06T01:15:47.969Z,991.9
2018-03-06T01:16:28.524Z,991.98
2018-03-06T01:17:09.071Z,991.97
2018-03-06T01:17:49.630Z,991.92
2018-03-06T01:18:30.195Z,991.92
2018-03-06T01:19:10.749Z,991.93
2018-03-06T01:19:51.303Z,991.98
2018-03-06T01:20:31.881Z,991.94
2018-03-06T01:21:12.403Z,991.94
2018-03-06T01:21:52.971Z,991.88
2018-03-06T01:22:33.498Z,991.91
2018-03-06T01:23:14.050Z,991.92
2018-03-06T01:23:54.602Z,991.9
2018-03-06T01:24:35.182Z,991.95
2018-03-06T01:25:15.744Z,991.94
2018-03-06T01:25:56.312Z,991.92
2018-03-06T01:26:36.867Z,991.91
2018-03-06T01:27:17.432Z,991.89
2018-03-06T01:27:57.988Z,991.9
2018-03-06T01:28:38.565Z,991.92
2018-03-06T01:29:19.142Z,991.93
2018-03-06T01:29:59.707Z,991.88
2018-03-06T01:30:40.263Z,991.92
2018-03-06T01:31:20.811Z,991.89
2018-03-06T01:32:01.363Z,991.86
2018-03-06T01:32:41.916Z,991.85
2018-03-06T01:33:22.508Z,991.86
2018-03-06T01:34:03.072Z,991.84
2018-03-06T01:34:43.617Z,991.87
2018-03-06T01:35:24.183Z,991.84
2018-03-06T01:36:04.749Z,991.85
2018-03-06T01:36:45.328Z,991.86
2018-03-06T01:37:25.927Z,991.85
2018-03-06T01:38:06.480Z,991.85
2018-03-06T01:38:47.021Z,991.81
2018-03-06T01:39:27.580Z,991.83
2018-03-06T01:40:08.193Z,991.85
2018-03-06T01:40:48.732Z,991.85
2018-03-06T01:41:29.294Z,991.76
2018-03-06T01:42:09.845Z,991.76
2018-03-06T01:42:50.401Z,991.76
2018-03-06T01:43:30.964Z,991.76
2018-03-06T01:44:11.520Z,991.77
2018-03-06T01:44:52.085Z,991.78
2018-03-06T01:45:32.700Z,991.78
2018-03-06T01:46:13.260Z,991.76
2018-03-06T01:46:53.821Z,991.73
2018-03-06T01:47:34.376Z,991.72
2018-03-06T01:48:14.924Z,991.71
2018-03-06T01:48:55.482Z,991.72
2018-03-06T01:49:36.070Z,991.68
2018-03-06T01:50:16.606Z,991.72
2018-03-06T01:50:57.172Z,991.72
2018-03-06T01:51:37.734Z,991.7
2018-03-06T01:52:18.298Z,991.72
2018-03-06T01:52:58.860Z,991.73
2018-03-06T01:53:39.423Z,991.71
2018-03-06T01:54:19.992Z,991.73
2018-03-06T01:55:00.559Z,991.7
2018-03-06T01:55:41.200Z,991.72
2018-03-06T01:56:21.687Z,991.75
2018-03-06T01:57:02.249Z,991.75
2018-03-06T01:57:42.806Z,991.71
2018-03-06T01:58:23.446Z,991.73
2018-03-06T01:59:04.014Z,991.75
2018-03-06T01:59:44.601Z,991.74
2018-03-06T02:00:25.173Z,991.69
2018-03-06T02:01:05.733Z,991.72
2018-03-06T02:01:46.288Z,991.69
2018-03-06T02:02:26.833Z,991.63
2018-03-06T02:03:07.402Z,991.65
2018-03-06T02:03:47.958Z,991.67
2018-03-06T02:04:28.512Z,991.64
2018-03-06T02:05:09.083Z,991.69
2018-03-06T02:05:49.712Z,991.66
2018-03-06T02:06:30.269Z,991.65
2018-03-06T02:07:10.822Z,991.64
2018-03-06T02:07:51.436Z,991.66
2018-03-06T02:08:31.988Z,991.63
2018-03-06T02:09:12.567Z,991.61
2018-03-06T02:09:53.123Z,991.63
2018-03-06T02:10:33.683Z,991.65
2018-03-06T02:11:14.256Z,991.59
2018-03-06T02:11:54.815Z,991.53
2018-03-06T02:12:35.385Z,991.57
2018-03-06T02:13:15.923Z,991.58
2018-03-06T02:13:56.497Z,991.57
2018-03-06T02:14:37.070Z,991.54
2018-03-06T02:15:17.617Z,991.54
2018-03-06T02:15:58.186Z,991.56
2018-03-06T02:16:38.734Z,991.52
2018-03-06T02:17:19.292Z,991.52
2018-03-06T02:17:59.845Z,991.53
2018-03-06T02:18:40.398Z,991.5
2018-03-06T02:19:20.952Z,991.48
2018-03-06T02:20:01.503Z,991.48
2018-03-06T02:20:42.048Z,991.46
2018-03-06T02:21:22.608Z,991.53
2018-03-06T02:22:03.167Z,991.52
2018-03-06T02:22:43.734Z,991.48
2018-03-06T02:23:24.295Z,991.49
2018-03-06T02:24:04.854Z,991.49
2018-03-06T02:24:45.412Z,991.48
2018-03-06T02:25:25.975Z,991.48
2018-03-06T02:26:06.663Z,991.47
2018-03-06T02:26:47.243Z,991.48
2018-03-06T02:27:27.810Z,991.44
2018-03-06T02:28:08.426Z,991.41
2018-03-06T02:28:48.978Z,991.42
2018-03-06T02:29:29.547Z,991.46
2018-03-06T02:30:10.113Z,991.44
2018-03-06T02:30:50.668Z,991.42
2018-03-06T02:31:31.223Z,991.41
2018-03-06T02:32:11.784Z,991.35
2018-03-06T02:32:52.364Z,991.36
2018-03-06T02:33:32.903Z,991.35
2018-03-06T02:34:13.449Z,991.31
2018-03-06T02:34:54.068Z,991.32
2018-03-06T02:35:34.613Z,991.35
2018-03-06T02:36:15.189Z,991.33
2018-03-06T02:36:55.733Z,991.35
2018-03-06T02:37:36.291Z,991.34
2018-03-06T02:38:16.841Z,991.27
2018-03-06T02:38:57.406Z,991.26
2018-03-06T02:39:37.967Z,991.3
2018-03-06T02:40:18.517Z,991.31
2018-03-06T02:40:59.068Z,991.28
2018-03-06T02:41:39.616Z,991.27
2018-03-06T02:42:20.176Z,991.24
2018-03-06T02:43:00.776Z,991.23
2018-03-06T02:43:41.258Z,991.22
2018-03-06T02:44:21.813Z,991.2
2018-03-06T02:45:02.358Z,991.23
2018-03-06T02:45:42.918Z,991.19
2018-03-06T02:46:23.449Z,991.23
2018-03-06T02:47:03.993Z,991.17
2018-03-06T02:47:44.550Z,991.22
2018-03-06T02:48:25.131Z,991.22
2018-03-06T02:49:05.676Z,991.18
2018-03-06T02:49:46.232Z,991.2
2018-03-06T02:50:26.779Z,991.15
2018-03-06T02:51:07.324Z,991.21
2018-03-06T02:51:47.887Z,991.17
2018-03-06T02:52:28.441Z,991.23
2018-03-06T02:53:08.975Z,991.21
2018-03-06T02:53:49.536Z,991.18
2018-03-06T02:54:30.114Z,991.22
2018-03-06T02:55:10.676Z,991.21
2018-03-06T02:55:51.261Z,991.19
2018-03-06T02:56:31.795Z,991.23
2018-03-06T02:57:12.344Z,991.22
2018-03-06T02:57:52.904Z,991.2
2018-03-06T02:58:33.465Z,991.22
2018-03-06T02:59:14.014Z,991.22
2018-03-06T02:59:54.570Z,991.23
2018-03-06T03:00:35.120Z,991.26
2018-03-06T03:01:15.680Z,991.24
2018-03-06T03:01:56.250Z,991.25
2018-03-06T03:02:36.788Z,991.24
2018-03-06T03:03:17.347Z,991.2
2018-03-06T03:03:57.898Z,991.24
2018-03-06T03:04:38.444Z,991.24
2018-03-06T03:05:18.999Z,991.19
2018-03-06T03:05:59.560Z,991.21
2018-03-06T03:06:40.141Z,991.14
2018-03-06T03:07:20.700Z,991.17
2018-03-06T03:08:01.255Z,991.15
2018-03-06T03:08:41.812Z,991.21
2018-03-06T03:09:22.362Z,991.18
2018-03-06T03:10:02.930Z,991.2
2018-03-06T03:10:43.483Z,991.19
2018-03-06T03:11:24.035Z,991.21
2018-03-06T03:12:04.590Z,991.19
2018-03-06T03:12:45.149Z,991.2
2018-03-06T03:13:25.697Z,991.17
2018-03-06T03:14:06.248Z,991.19
2018-03-06T03:14:46.847Z,991.15
2018-03-06T03:15:27.402Z,991.17
2018-03-06T03:16:07.989Z,991.15
2018-03-06T03:16:48.543Z,991.12
2018-03-06T03:17:29.096Z,991.13
2018-03-06T03:18:09.652Z,991.2
2018-03-06T03:18:50.281Z,991.14
2018-03-06T03:19:30.855Z,991.14
2018-03-06T03:20:11.394Z,991.16
2018-03-06T03:20:51.962Z,991.16
2018-03-06T03:21:32.493Z,991.16
2018-03-06T03:22:13.037Z,991.18
2018-03-06T03:22:53.592Z,991.19
2018-03-06T03:23:34.151Z,991.19
2018-03-06T03:24:14.691Z,991.17
2018-03-06T03:24:55.248Z,991.17
2018-03-06T03:25:35.814Z,991.2
2018-03-06T03:26:16.341Z,991.16
2018-03-06T03:26:56.891Z,991.18
2018-03-06T03:27:37.458Z,991.17
2018-03-06T03:28:18.009Z,991.15
2018-03-06T03:28:58.559Z,991.18
2018-03-06T03:29:39.109Z,991.14
2018-03-06T03:30:19.672Z,991.1
2018-03-06T03:31:00.220Z,991.14
2018-03-06T03:31:40.775Z,991.12
2018-03-06T03:32:21.334Z,991.13
2018-03-06T03:33:01.904Z,991.09
2018-03-06T03:33:42.458Z,991.11
2018-03-06T03:34:23.010Z,991.06
2018-03-06T03:35:03.594Z,991.12
2018-03-06T03:35:44.149Z,991.06
2018-03-06T03:36:24.706Z,991.07
2018-03-06T03:37:05.273Z,991.11
2018-03-06T03:37:45.808Z,991.06
2018-03-06T03:38:27.047Z,991.05
2018-03-06T03:39:07.599Z,991.02
2018-03-06T03:39:48.167Z,991.04
2018-03-06T03:40:28.754Z,991.04
2018-03-06T03:41:09.282Z,991.05
2018-03-06T03:41:49.833Z,991.04
2018-03-06T03:42:30.376Z,990.97
2018-03-06T03:43:11.025Z,991.01
2018-03-06T03:43:51.588Z,991
2018-03-06T03:44:32.138Z,990.99
2018-03-06T03:45:12.710Z,990.96
2018-03-06T03:45:53.248Z,990.98
2018-03-06T03:46:33.809Z,990.98
2018-03-06T03:47:14.341Z,990.98
2018-03-06T03:47:54.906Z,990.97
2018-03-06T03:48:35.462Z,990.92
2018-03-06T03:49:16.014Z,990.95
2018-03-06T03:49:56.579Z,990.98
2018-03-06T03:50:37.156Z,990.93
2018-03-06T03:51:17.718Z,990.89
2018-03-06T03:51:58.262Z,990.93
2018-03-06T03:52:38.827Z,990.91
2018-03-06T03:53:19.409Z,990.88
2018-03-06T03:53:59.965Z,990.85
2018-03-06T03:54:40.512Z,990.86
2018-03-06T03:55:21.061Z,990.87
2018-03-06T03:56:01.615Z,990.86
2018-03-06T03:56:42.148Z,990.85
2018-03-06T03:57:22.732Z,990.86
2018-03-06T03:58:03.269Z,990.88
2018-03-06T03:58:43.835Z,990.85
2018-03-06T03:59:24.403Z,990.8
2018-03-06T04:00:04.960Z,990.85
2018-03-06T04:00:45.524Z,990.83
2018-03-06T04:01:26.088Z,990.84
2018-03-06T04:02:06.734Z,990.82
2018-03-06T04:02:47.241Z,990.79
2018-03-06T04:03:27.789Z,990.82
2018-03-06T04:04:08.340Z,990.81
2018-03-06T04:04:49.082Z,990.82
2018-03-06T04:05:29.729Z,990.83
2018-03-06T04:06:10.308Z,990.79
2018-03-06T04:06:50.888Z,990.78
2018-03-06T04:07:31.443Z,990.81
2018-03-06T04:08:12.012Z,990.82
2018-03-06T04:08:52.573Z,990.81
2018-03-06T04:09:33.133Z,990.81
2018-03-06T04:10:13.692Z,990.84
2018-03-06T04:10:54.266Z,990.81
2018-03-06T04:11:34.831Z,990.77
2018-03-06T04:12:15.394Z,990.82
2018-03-06T04:12:55.954Z,990.82
2018-03-06T04:13:36.525Z,990.79
2018-03-06T04:14:17.109Z,990.8
2018-03-06T04:14:57.663Z,990.85
2018-03-06T04:15:38.209Z,990.78
2018-03-06T04:16:18.762Z,990.8
2018-03-06T04:16:59.305Z,990.82
2018-03-06T04:17:39.863Z,990.84
2018-03-06T04:18:20.412Z,990.86
2018-03-06T04:19:00.964Z,990.8
2018-03-06T04:19:41.528Z,990.84
2018-03-06T04:20:22.077Z,990.8
2018-03-06T04:21:02.613Z,990.82
2018-03-06T04:21:43.170Z,990.79
2018-03-06T04:22:23.706Z,990.81
2018-03-06T04:23:04.259Z,990.8
2018-03-06T04:23:44.801Z,990.78
2018-03-06T04:24:25.569Z,990.78
2018-03-06T04:25:06.127Z,990.78
2018-03-06T04:25:46.678Z,990.78
2018-03-06T04:26:27.257Z,990.74
2018-03-06T04:27:07.794Z,990.76
2018-03-06T04:27:48.363Z,990.78
2018-03-06T04:28:28.931Z,990.78
2018-03-06T04:29:09.488Z,990.8
2018-03-06T04:29:50.047Z,990.78
2018-03-06T04:30:30.608Z,990.77
2018-03-06T04:31:11.159Z,990.78
2018-03-06T04:31:51.852Z,990.76
2018-03-06T04:32:32.402Z,990.77
2018-03-06T04:33:12.974Z,990.73
2018-03-06T04:33:53.533Z,990.75
2018-03-06T04:34:34.106Z,990.74
2018-03-06T04:35:14.649Z,990.76
2018-03-06T04:35:55.211Z,990.75
2018-03-06T04:36:35.774Z,990.77
2018-03-06T04:37:16.322Z,990.75
2018-03-06T04:37:56.912Z,990.72
2018-03-06T04:38:37.500Z,990.76
2018-03-06T04:39:18.058Z,990.74
2018-03-06T04:39:58.620Z,990.69
2018-03-06T04:40:39.170Z,990.7
2018-03-06T04:41:19.719Z,990.68
2018-03-06T04:42:00.269Z,990.69
2018-03-06T04:42:40.824Z,990.65
2018-03-06T04:43:21.411Z,990.65
2018-03-06T04:44:01.957Z,990.67
2018-03-06T04:44:42.532Z,990.64
2018-03-06T04:45:23.143Z,990.66
2018-03-06T04:46:03.663Z,990.67
2018-03-06T04:46:44.246Z,990.65
2018-03-06T04:47:24.805Z,990.6
2018-03-06T04:48:05.363Z,990.6
2018-03-06T04:48:45.910Z,990.63
2018-03-06T04:49:26.464Z,990.6
2018-03-06T04:50:07.024Z,990.61
2018-03-06T04:50:47.572Z,990.6
2018-03-06T04:51:28.135Z,990.61
2018-03-06T04:52:08.705Z,990.63
2018-03-06T04:52:49.265Z,990.61
2018-03-06T04:53:29.864Z,990.62
2018-03-06T04:54:10.403Z,990.6
2018-03-06T04:54:50.957Z,990.64
2018-03-06T04:55:31.520Z,990.62
2018-03-06T04:56:12.078Z,990.55
2018-03-06T04:56:52.618Z,990.62
2018-03-06T04:57:33.169Z,990.59
2018-03-06T04:58:13.722Z,990.57
2018-03-06T04:58:54.284Z,990.61
2018-03-06T04:59:34.847Z,990.58
2018-03-06T05:00:15.400Z,990.58
2018-03-06T05:00:55.949Z,990.62
2018-03-06T05:01:36.539Z,990.63
2018-03-06T05:02:17.092Z,990.65
2018-03-06T05:02:57.641Z,990.58
2018-03-06T05:03:38.191Z,990.6
2018-03-06T05:04:18.749Z,990.57
2018-03-06T05:04:59.295Z,990.56
2018-03-06T05:05:39.844Z,990.56
2018-03-06T05:06:20.396Z,990.53
2018-03-06T05:07:00.975Z,990.54
2018-03-06T05:07:41.525Z,990.56
2018-03-06T05:08:22.097Z,990.6
2018-03-06T05:09:02.638Z,990.5
2018-03-06T05:09:43.184Z,990.51
2018-03-06T05:10:23.733Z,990.52
2018-03-06T05:11:04.298Z,990.51
2018-03-06T05:11:44.832Z,990.5
2018-03-06T05:12:25.382Z,990.5
2018-03-06T05:13:05.960Z,990.5
2018-03-06T05:13:46.542Z,990.48
2018-03-06T05:14:27.110Z,990.45
2018-03-06T05:15:07.661Z,990.48
2018-03-06T05:15:48.218Z,990.52
2018-03-06T05:16:28.782Z,990.49
2018-03-06T05:17:09.317Z,990.46
2018-03-06T05:17:49.861Z,990.46
2018-03-06T05:18:30.411Z,990.45
2018-03-06T05:19:10.988Z,990.45
2018-03-06T05:19:51.547Z,990.44
2018-03-06T05:20:32.098Z,990.48
2018-03-06T05:21:12.641Z,990.43
2018-03-06T05:21:53.195Z,990.48
2018-03-06T05:22:33.745Z,990.45
2018-03-06T05:23:14.302Z,990.45
2018-03-06T05:23:54.874Z,990.53
2018-03-06T05:24:35.431Z,990.45
2018-03-06T05:25:16.005Z,990.52
2018-03-06T05:25:56.553Z,990.52
2018-03-06T05:26:37.147Z,990.5
2018-03-06T05:27:17.696Z,990.52
2018-03-06T05:27:58.242Z,990.53
2018-03-06T05:28:38.803Z,990.48
2018-03-06T05:29:19.361Z,990.48
2018-03-06T05:29:59.917Z,990.49
2018-03-06T05:30:40.488Z,990.49
2018-03-06T05:31:21.047Z,990.44
2018-03-06T05:32:01.650Z,990.42
2018-03-06T05:32:42.188Z,990.43
2018-03-06T05:33:22.732Z,990.46
2018-03-06T05:34:03.273Z,990.46
2018-03-06T05:34:43.821Z,990.43
2018-03-06T05:35:24.369Z,990.45
2018-03-06T05:36:04.925Z,990.45
2018-03-06T05:36:45.483Z,990.45
2018-03-06T05:37:26.051Z,990.48
2018-03-06T05:38:06.608Z,990.4
2018-03-06T05:38:47.162Z,990.43
2018-03-06T05:39:27.716Z,990.46
2018-03-06T05:40:08.279Z,990.43
2018-03-06T05:40:48.837Z,990.45
2018-03-06T05:41:29.391Z,990.45
2018-03-06T05:42:09.958Z,990.44
2018-03-06T05:42:50.509Z,990.42
2018-03-06T05:43:31.062Z,990.41
2018-03-06T05:44:11.656Z,990.45
2018-03-06T05:44:52.225Z,990.42
2018-03-06T05:45:32.774Z,990.44
2018-03-06T05:46:13.315Z,990.45
2018-03-06T05:46:53.861Z,990.44
2018-03-06T05:47:34.420Z,990.42
2018-03-06T05:48:14.971Z,990.43
2018-03-06T05:48:55.531Z,990.45
2018-03-06T05:49:36.081Z,990.46
2018-03-06T05:50:16.624Z,990.46
2018-03-06T05:50:57.282Z,990.4
2018-03-06T05:54:27.974Z,990.4
2018-03-06T05:55:08.514Z,990.4
2018-03-06T05:55:49.132Z,990.41
2018-03-06T05:56:29.715Z,990.38
2018-03-06T05:57:10.290Z,990.4
2018-03-06T05:57:50.892Z,990.37
2018-03-06T05:58:31.456Z,990.41
2018-03-06T05:59:12.054Z,990.39
2018-03-06T05:59:52.614Z,990.39
2018-03-06T06:00:33.163Z,990.42
2018-03-06T06:01:13.713Z,990.42
2018-03-06T06:01:54.274Z,990.45
2018-03-06T06:02:34.840Z,990.42
2018-03-06T06:03:15.407Z,990.42
2018-03-06T06:03:55.959Z,990.4
2018-03-06T06:04:36.508Z,990.39
2018-03-06T06:05:17.075Z,990.41
2018-03-06T06:05:57.697Z,990.4
2018-03-06T06:06:38.238Z,990.45
2018-03-06T06:07:18.820Z,990.47
2018-03-06T06:07:59.378Z,990.45
2018-03-06T06:08:39.973Z,990.41
2018-03-06T06:09:20.526Z,990.45
2018-03-06T06:10:01.079Z,990.45
2018-03-06T06:10:41.629Z,990.47
2018-03-06T06:11:22.225Z,990.46
2018-03-06T06:12:02.779Z,990.51
2018-03-06T06:12:43.328Z,990.46
2018-03-06T06:13:23.957Z,990.45
2018-03-06T06:14:04.522Z,990.45
2018-03-06T06:14:45.081Z,990.44
2018-03-06T06:15:25.679Z,990.49
2018-03-06T06:16:06.241Z,990.47
2018-03-06T06:16:46.791Z,990.47
2018-03-06T06:17:27.389Z,990.48
2018-03-06T06:18:08.007Z,990.48
2018-03-06T06:18:48.556Z,990.49
2018-03-06T06:19:29.100Z,990.46
2018-03-06T06:20:09.655Z,990.49
2018-03-06T06:20:50.257Z,990.49
2018-03-06T06:21:30.834Z,990.49
2018-03-06T06:22:11.394Z,990.48
2018-03-06T06:22:51.936Z,990.49
2018-03-06T06:23:32.493Z,990.51
2018-03-06T06:24:13.036Z,990.54
2018-03-06T06:24:53.589Z,990.53
2018-03-06T06:25:34.138Z,990.47
2018-03-06T06:26:14.697Z,990.5
2018-03-06T06:26:55.259Z,990.5
2018-03-06T06:27:35.830Z,990.53
2018-03-06T06:28:16.366Z,990.53
2018-03-06T06:28:57.051Z,990.52
2018-03-06T06:29:37.742Z,990.56
2018-03-06T06:30:18.297Z,990.53
2018-03-06T06:30:58.857Z,990.52
2018-03-06T06:31:39.475Z,990.56
2018-03-06T06:32:20.058Z,990.57
2018-03-06T06:33:00.604Z,990.59
2018-03-06T06:33:41.157Z,990.59
2018-03-06T06:34:21.707Z,990.62
2018-03-06T06:35:02.280Z,990.6
2018-03-06T06:35:42.871Z,990.6
2018-03-06T06:36:23.527Z,990.61
2018-03-06T06:37:04.074Z,990.59
2018-03-06T06:37:44.630Z,990.63
2018-03-06T06:38:25.218Z,990.6
2018-03-06T06:39:05.768Z,990.6
2018-03-06T06:39:46.338Z,990.59
2018-03-06T06:40:26.970Z,990.6
2018-03-06T06:41:07.520Z,990.63
2018-03-06T06:41:48.074Z,990.62
2018-03-06T06:42:28.625Z,990.6
2018-03-06T06:43:09.178Z,990.6
2018-03-06T06:43:49.733Z,990.57
2018-03-06T06:44:30.288Z,990.59
2018-03-06T06:45:10.894Z,990.54
2018-03-06T06:45:51.468Z,990.58
2018-03-06T06:46:32.047Z,990.57
2018-03-06T06:47:12.615Z,990.57
2018-03-06T06:47:53.161Z,990.54
2018-03-06T06:48:33.725Z,990.55
2018-03-06T06:49:14.284Z,990.55
2018-03-06T06:49:54.874Z,990.57
2018-03-06T06:50:35.424Z,990.55
2018-03-06T06:51:16.618Z,990.52
2018-03-06T06:51:56.831Z,990.57
2018-03-06T06:52:37.382Z,990.57
2018-03-06T06:53:17.934Z,990.59
2018-03-06T06:53:58.488Z,990.63
2018-03-06T06:54:39.188Z,990.6
2018-03-06T06:55:19.851Z,990.61
2018-03-06T06:56:00.406Z,990.57
2018-03-06T06:56:42.038Z,990.59
2018-03-06T06:57:22.565Z,990.61
2018-03-06T06:58:03.262Z,990.59
2018-03-06T06:58:43.849Z,990.6
2018-03-06T06:59:24.381Z,990.55
2018-03-06T07:00:04.941Z,990.56
2018-03-06T07:00:45.524Z,990.56
2018-03-06T07:01:27.108Z,990.57
2018-03-06T07:02:07.734Z,990.54
2018-03-06T07:02:48.291Z,990.52
2018-03-06T07:03:28.984Z,990.52
2018-03-06T07:04:09.644Z,990.51
2018-03-06T07:04:50.252Z,990.5
2018-03-06T07:05:30.791Z,990.51
2018-03-06T07:06:11.345Z,990.5
2018-03-06T07:06:51.954Z,990.53
2018-03-06T07:07:32.606Z,990.52
2018-03-06T07:08:13.147Z,990.49
2018-03-06T07:08:53.699Z,990.57
2018-03-06T07:09:34.260Z,990.51
2018-03-06T07:10:14.826Z,990.54
2018-03-06T07:10:55.376Z,990.53
2018-03-06T07:11:35.941Z,990.49
2018-03-06T07:12:16.500Z,990.54
2018-03-06T07:12:57.071Z,990.54
2018-03-06T07:13:37.703Z,990.5
2018-03-06T07:14:18.273Z,990.51
2018-03-06T07:14:58.830Z,990.46
2018-03-06T07:15:39.374Z,990.49
2018-03-06T07:16:19.924Z,990.51
2018-03-06T07:17:00.486Z,990.55
2018-03-06T07:17:41.044Z,990.56
2018-03-06T07:18:21.611Z,990.51
2018-03-06T07:19:02.353Z,990.52
2018-03-06T07:19:42.888Z,990.57
2018-03-06T07:20:23.442Z,990.53
2018-03-06T07:21:04.010Z,990.54
2018-03-06T07:21:44.606Z,990.59
2018-03-06T07:22:25.150Z,990.58
2018-03-06T07:23:05.800Z,990.57
2018-03-06T07:23:46.442Z,990.55
2018-03-06T07:24:26.979Z,990.58
2018-03-06T07:25:07.573Z,990.58
2018-03-06T07:25:48.130Z,990.55
2018-03-06T07:26:28.685Z,990.61
2018-03-06T07:27:09.230Z,990.56
2018-03-06T07:27:49.802Z,990.58
2018-03-06T07:28:30.354Z,990.57
2018-03-06T07:29:10.913Z,990.6
2018-03-06T07:29:51.521Z,990.61
2018-03-06T07:30:32.080Z,990.6
2018-03-06T07:31:12.634Z,990.62
2018-03-06T07:31:53.234Z,990.62
2018-03-06T07:32:33.756Z,990.59
2018-03-06T07:33:14.319Z,990.61
2018-03-06T07:33:54.879Z,990.65
2018-03-06T07:34:35.437Z,990.68
2018-03-06T07:35:15.996Z,990.69
2018-03-06T07:35:56.616Z,990.69
2018-03-06T07:36:37.196Z,990.73
2018-03-06T07:37:17.839Z,990.72
2018-03-06T07:37:58.427Z,990.71
2018-03-06T07:38:38.958Z,990.72
2018-03-06T07:39:19.529Z,990.74
2018-03-06T07:40:00.120Z,990.71
2018-03-06T07:40:40.705Z,990.74
2018-03-06T07:41:21.266Z,990.73
2018-03-06T07:42:01.841Z,990.75
2018-03-06T07:42:42.449Z,990.77
2018-03-06T07:43:23.007Z,990.76
2018-03-06T07:44:03.557Z,990.76
2018-03-06T07:44:44.134Z,990.76
2018-03-06T07:45:24.744Z,990.76
2018-03-06T07:46:05.298Z,990.7
2018-03-06T07:46:45.858Z,990.7
2018-03-06T07:47:26.527Z,990.7
2018-03-06T07:48:07.107Z,990.67
2018-03-06T07:48:47.739Z,990.69
2018-03-06T07:49:28.288Z,990.7
2018-03-06T07:50:08.859Z,990.7
2018-03-06T07:50:49.419Z,990.7
2018-03-06T07:51:29.963Z,990.74
2018-03-06T07:52:10.517Z,990.72
2018-03-06T07:52:51.092Z,990.69
2018-03-06T07:53:31.647Z,990.7
2018-03-06T07:54:12.228Z,990.67
2018-03-06T07:54:52.794Z,990.66
2018-03-06T07:55:33.419Z,990.67
2018-03-06T07:56:13.985Z,990.7
2018-03-06T07:56:54.566Z,990.69
2018-03-06T07:57:35.128Z,990.68
2018-03-06T07:58:15.704Z,990.66
2018-03-06T07:58:56.259Z,990.62
2018-03-06T07:59:36.820Z,990.65
2018-03-06T08:00:17.401Z,990.66
2018-03-06T08:00:57.981Z,990.67
2018-03-06T08:01:38.546Z,990.69
2018-03-06T08:02:19.097Z,990.62
2018-03-06T08:02:59.647Z,990.63
2018-03-06T08:03:40.190Z,990.64
2018-03-06T08:04:20.787Z,990.62
2018-03-06T08:05:01.331Z,990.64
2018-03-06T08:05:41.929Z,990.63
2018-03-06T08:06:22.494Z,990.63
2018-03-06T08:07:03.057Z,990.62
2018-03-06T08:07:43.673Z,990.6
2018-03-06T08:08:24.307Z,990.63
2018-03-06T08:09:04.857Z,990.59
2018-03-06T08:09:45.417Z,990.65
2018-03-06T08:10:25.966Z,990.63
2018-03-06T08:11:06.570Z,990.6
2018-03-06T08:11:47.128Z,990.61
2018-03-06T08:12:27.802Z,990.63
2018-03-06T08:13:08.353Z,990.64
2018-03-06T08:13:48.908Z,990.63
2018-03-06T08:14:29.467Z,990.61
2018-03-06T08:15:10.044Z,990.61
2018-03-06T08:15:50.593Z,990.61
2018-03-06T08:16:31.160Z,990.62
2018-03-06T08:17:11.767Z,990.63
2018-03-06T08:17:52.324Z,990.6
2018-03-06T08:18:33.042Z,990.62
2018-03-06T08:19:13.422Z,990.57
2018-03-06T08:19:54.002Z,990.6
2018-03-06T08:20:34.649Z,990.58
2018-03-06T08:21:15.275Z,990.58
2018-03-06T08:21:55.948Z,990.62
2018-03-06T08:22:36.514Z,990.63
2018-03-06T08:23:17.069Z,990.62
2018-03-06T08:23:57.674Z,990.61
2018-03-06T08:24:38.188Z,990.61
2018-03-06T08:25:18.762Z,990.64
2018-03-06T08:25:59.326Z,990.65
2018-03-06T08:26:39.902Z,990.59
2018-03-06T08:27:20.462Z,990.61
2018-03-06T08:28:01.026Z,990.62
2018-03-06T08:28:41.575Z,990.65
2018-03-06T08:29:22.145Z,990.61
2018-03-06T08:30:02.723Z,990.63
2018-03-06T08:30:43.276Z,990.64